Terminal Aerodrome Forecast
Issued by NWS Pocatello, ID

Home | Current Version | Previous Version | Text Only | Print | Product List | Glossary On
Versions: 1 2 3 4 5 6 7 8 9 10 11 12 13 14 15 16 17
573
FTUS45 KPIH 062348 AAA
TAFIDA
TAF AMD
KIDA 062348Z 0700/0724 02010G15KT P6SM VCSH FEW050 SCT070 BKN100
     FM070300 03010KT P6SM -SHRA FEW025 BKN040 OVC070
     FM070800 04008KT 6SM -SHRA SCT010 BKN020 OVC035
     FM071400 VRB05KT P6SM VCSH SCT040 BKN070 BKN110
     FM072200 24010G15KT P6SM VCTS SCT040 BKN070CB BKN100=

USA.gov is the U.S. government's official web portal to all federal, state and local government web resources and services.